Aérodrome :
LOGIN :

S'inscrire | Disclaimer

   EN    FR    IT 

 










Légende :    VFR   VFR Marginal   IFR   IFR Intensif   IFR Très Intensif
Visi : 
Plafond : 
>= 8 km
>= 3000ft
5 à 8 km
1000 à 3000 ft
1500m à 5 km
500 à 1000 ft
800 à 1500m
200 à 500 ft
< 800m
< 200 ft
Symboles :   Orages  Brouillard  Fortes neiges  Fortes précipitations  Vent > 20 kt
SIGMETs :   Divers  Orages  Givrage  Turbulence  Onde Orograph.  Cendres Volcan.







- Altitude de l'aérodrome : 885 ft
- Code IATA : BAS
- Voir les cartes d'approche


LFSB - Bale-Mulhouse

DERNIER METAR :
  • 220000Z AUTO 13006KT 100V200 9999 -RA BKN016 OVC022 03/02 Q1013 TEMPO 4000 RA OVC008 BECMG 26010G20KT

METARs EXPIRÉS :
  • 212330Z AUTO 13010KT 9999 -RA FEW006/// OVC019/// ///TCU 03/02 Q1014 TEMPO 4000 RA OVC008 BECMG 26010G20KT
  • 212300Z 13009KT 9999 -RA BKN020 03/02 Q1015 NOSIG
  • 212230Z 12007KT 9999 -RA BKN024 03/01 Q1015 NOSIG
  • 212200Z 11008KT 9999 -RA BKN028 03/01 Q1016 NOSIG
  • 212130Z 11005KT 9999 -RA BKN028 03/02 Q1016 NOSIG
  • 212100Z 11007KT 9999 -RA FEW009 BKN026 03/02 Q1016 NOSIG

TAF TAF LFSB
Valide du 22 à 00h jusqu'au 23 à 00h UTC


212300Z 2200/2224 16007KT 9999 OVC025
PROB40
TEMPO 2200/2203 4000 RA OVC008
BECMG 2201/2203 26010G20KT
TEMPO 2209/2215 4000 RA
TEMPO 2215/2219 27015G30KT 4000 SHRA SCT030TCU
PROB40
TEMPO 2215/2218 FEW030CB
Météo : +33 3 89 90 31 11
Pas de NOTAMs connus pour ce terrain.



MET'MAP, la Météo Aéronautique d'un coup d'oeil ! - Copyright ORBIFLY Décembre 2007 - Disclaimer

ORBIFLY MET'MAP TEAM :

Programmation & Développement : Alexandra Zaïnal
Conception & Développement : Baudouin d'Aumeries
Co-Programmation & Développement : Marc-Olivier Méhu
Soutien technique & logistique : Manuel Goepfert

Contact : metmap@orbifly.com




SOURCES & CREDITS :

   NOAA